map of HTGW home
HTGW - Airport
Location
City:  Mbeya, Mbeya, Tanzania
Name:Songwe Airport
ICAO:HTGW

Details
Type:Airport (Aerodrome, Airfield)
Use:Private
Latitude:855'11"S (-8.919721)
Longitude:3316'26"E (33.273889)
Elevation:4412 ft (1345 m)
Variation:1.73W (WMM2015 magnetic declination)
0.03 annual change
Runways:1
Longest:10925 ft (3330 m), paved

Time
Time Zone:UTC+3
Local Time:

Weather
TAF:HTGW 150500Z 1506/1606 13015KT 9999 FEW026

Related Locations
Nearby:
Farthest:CXI: 11572 mi / 18623 km
Christmas Island (Kiritimati) [Cassidy Intl], L, KI

Find:

   beyond  
but within

Other Information
Maps:
NOTAMs:
Links:
Sources:

  
  • flag of Tanzania
  

Sectional Chart

Flight Planning
at skyvector.com

Satellite Image

Google Maps Satellite view

 

Copyright © 2004-2018 Karl L. Swartz. All rights reserved.
The Great Circle Mapper name and logo are trademarks of the Great Circle Mapper.
All other trademarks mentioned herein belong to their respective owners.
Please see credits for attibutions and further copyright information.

  Follow gcmap on Facebook Follow gcmap on Twitter Follow gcmap on Google+ GCmap on LinkedIn

hCard Microformat

Geo Microformat